Time;durP1;ratioP1;P1;durP2;ratioP2;P2;SDS_P1;SDS_P2;PMS_P1;PMS_P2;Temp;Humidity;BMP_temperature;BMP_pressure;BME280_temperature;BME280_humidity;BME280_pressure;Samples;Min_cycle;Max_cycle;Signal;HPM_P1;HPM_P2
2023/01/22 00:01:11;;;;;;;19.88;10.27;;;-1.60;99.90;;;;;;5026270;28;20091;-83
2023/01/22 00:03:40;;;;;;;20.38;11.10;;;-1.60;99.90;;;;;;5039855;28;20040;-84
2023/01/22 00:06:07;;;;;;;22.87;12.57;;;-1.50;99.90;;;;;;5045852;28;20060;-83
2023/01/22 00:08:33;;;;;;;25.23;14.57;;;-1.40;99.90;;;;;;5028619;28;20327;-83
2023/01/22 00:10:59;;;;;;;25.15;14.05;;;-1.30;99.90;;;;;;5042974;28;20055;-83
2023/01/22 00:13:26;;;;;;;30.17;16.83;;;-1.30;99.90;;;;;;5045691;28;20057;-83
2023/01/22 00:15:53;;;;;;;25.27;13.80;;;-1.30;99.90;;;;;;5037061;28;20033;-84
2023/01/22 00:18:19;;;;;;;28.10;14.80;;;-1.30;99.90;;;;;;5038456;28;20033;-84
2023/01/22 00:20:49;;;;;;;28.25;15.32;;;-1.30;99.90;;;;;;5023376;28;20025;-82
2023/01/22 00:23:15;;;;;;;28.27;15.13;;;-1.30;99.90;;;;;;5039060;28;20044;-84
2023/01/22 00:25:41;;;;;;;27.55;16.50;;;-1.20;99.90;;;;;;5049105;28;20128;-84
2023/01/22 00:28:07;;;;;;;28.23;16.05;;;-1.10;99.90;;;;;;5047860;28;20029;-83
2023/01/22 00:30:33;;;;;;;26.40;14.52;;;-1.20;99.90;;;;;;5048631;28;20032;-83
2023/01/22 00:32:59;;;;;;;27.30;15.45;;;-1.20;99.90;;;;;;5026504;28;20215;-82
2023/01/22 00:35:25;;;;;;;26.40;15.10;;;-1.10;99.90;;;;;;5043340;28;20029;-83
2023/01/22 00:37:51;;;;;;;24.42;12.85;;;-1.10;99.90;;;;;;5026169;28;20401;-84
2023/01/22 00:40:17;;;;;;;22.58;12.95;;;-1.20;99.90;;;;;;5046800;28;20034;-83
2023/01/22 00:42:43;;;;;;;26.75;14.80;;;-1.10;99.90;;;;;;5054881;28;20425;-83
2023/01/22 00:45:11;;;;;;;30.48;15.98;;;-1.10;99.90;;;;;;5041129;28;20036;-85
2023/01/22 00:47:37;;;;;;;22.63;13.18;;;-1.10;99.90;;;;;;5030397;28;20382;-83
2023/01/22 00:50:03;;;;;;;20.88;12.05;;;-1.20;99.90;;;;;;5041708;28;20041;-83
2023/01/22 00:52:29;;;;;;;22.95;13.05;;;-1.20;99.90;;;;;;5029131;28;20037;-83
2023/01/22 00:54:55;;;;;;;24.80;14.75;;;-1.10;99.90;;;;;;5045977;28;20035;-84
2023/01/22 00:57:21;;;;;;;24.08;14.00;;;-1.20;99.90;;;;;;5038406;28;20029;-84
2023/01/22 00:59:47;;;;;;;21.30;12.60;;;-1.20;99.90;;;;;;5047348;28;20031;-83
2023/01/22 01:02:13;;;;;;;21.48;11.77;;;-1.20;99.90;;;;;;5042569;28;20029;-84
2023/01/22 01:04:39;;;;;;;19.90;10.60;;;-1.20;99.90;;;;;;5031248;28;20025;-84
2023/01/22 01:07:05;;;;;;;17.40;9.40;;;-1.30;99.90;;;;;;5038287;28;20541;-85
2023/01/22 01:09:31;;;;;;;21.23;11.60;;;-1.30;99.90;;;;;;5041919;28;20036;-83
2023/01/22 01:11:59;;;;;;;24.10;14.15;;;-1.30;99.90;;;;;;5046168;28;20513;-84
2023/01/22 01:14:25;;;;;;;27.50;16.00;;;-1.30;99.90;;;;;;5037530;28;20045;-84
2023/01/22 01:16:51;;;;;;;23.65;12.85;;;-1.20;99.90;;;;;;5026529;28;20131;-84
2023/01/22 01:19:17;;;;;;;27.05;14.60;;;-1.20;99.90;;;;;;5042556;28;20079;-83
2023/01/22 01:21:43;;;;;;;21.48;11.80;;;-1.10;99.90;;;;;;5051425;28;20029;-83
2023/01/22 01:24:09;;;;;;;18.45;10.48;;;-1.20;99.90;;;;;;5055231;28;20045;-82
2023/01/22 01:26:35;;;;;;;17.05;9.85;;;-1.20;99.90;;;;;;5046311;28;20041;-82
2023/01/22 01:29:08;;;;;;;14.85;8.43;;;-1.10;99.90;;;;;;5029078;28;20524;-83
2023/01/22 01:31:34;;;;;;;13.30;7.63;;;-1.10;99.90;;;;;;5040428;28;20069;-83
2023/01/22 01:34:00;;;;;;;12.05;6.68;;;-1.10;99.90;;;;;;5041857;28;20025;-83
2023/01/22 01:36:26;;;;;;;16.35;8.13;;;-1.10;99.90;;;;;;5025401;28;20037;-83
2023/01/22 01:38:53;;;;;;;15.20;8.40;;;-1.00;99.90;;;;;;5044243;28;20169;-82
2023/01/22 01:41:21;;;;;;;16.20;8.13;;;-1.10;99.90;;;;;;5039426;28;20037;-82
2023/01/22 01:44:18;;;;;;;13.55;7.95;;;-1.10;99.90;;;;;;5037345;28;20490;-83
2023/01/22 01:46:48;;;;;;;18.55;10.32;;;-1.10;99.90;;;;;;5036722;28;20041;-83
2023/01/22 01:49:31;;;;;;;16.55;9.57;;;-1.00;99.90;;;;;;5043366;28;20454;-82
2023/01/22 01:52:10;;;;;;;17.48;9.85;;;-1.00;99.90;;;;;;5038089;28;20480;-82
2023/01/22 01:54:39;;;;;;;15.30;8.48;;;-0.90;99.90;;;;;;5041115;28;20438;-82
2023/01/22 01:57:13;;;;;;;15.15;7.82;;;-1.00;99.90;;;;;;5037776;28;20033;-82
2023/01/22 01:59:40;;;;;;;18.17;10.23;;;-0.90;99.90;;;;;;5045177;28;20080;-82
2023/01/22 02:02:06;;;;;;;15.38;8.38;;;-0.80;99.90;;;;;;5044816;28;20045;-82
2023/01/22 02:04:32;;;;;;;16.92;8.20;;;-0.80;99.90;;;;;;5042448;28;20037;-82
2023/01/22 02:06:57;;;;;;;15.45;7.63;;;-0.80;99.90;;;;;;5028409;28;20044;-82
2023/01/22 02:09:25;;;;;;;14.43;6.43;;;-0.80;99.90;;;;;;5043765;28;20112;-82
2023/01/22 02:11:51;;;;;;;13.68;7.50;;;-1.00;99.90;;;;;;5035490;28;20064;-82
2023/01/22 02:14:21;;;;;;;12.40;7.20;;;-0.90;99.90;;;;;;5023186;28;20379;-82
2023/01/22 02:16:47;;;;;;;14.70;7.50;;;-0.90;99.90;;;;;;5045327;28;20037;-82
2023/01/22 02:19:12;;;;;;;11.93;6.82;;;-0.80;99.90;;;;;;5026350;28;20171;-82
2023/01/22 02:21:43;;;;;;;14.73;7.57;;;-0.90;99.90;;;;;;5037919;28;20371;-82
2023/01/22 02:24:15;;;;;;;15.32;7.80;;;-0.90;99.90;;;;;;5042161;28;20037;-82
2023/01/22 02:26:42;;;;;;;15.80;8.05;;;-0.90;99.90;;;;;;5021653;28;20041;-82
2023/01/22 02:29:11;;;;;;;14.70;7.50;;;-0.90;99.90;;;;;;5050804;28;20037;-82
2023/01/22 02:31:38;;;;;;;12.02;6.38;;;-0.90;99.90;;;;;;5036449;28;20069;-82
2023/01/22 02:34:05;;;;;;;10.80;5.57;;;-1.00;99.90;;;;;;5042088;28;20028;-81
2023/01/22 02:36:34;;;;;;;10.27;5.32;;;-1.10;99.90;;;;;;5044687;28;20057;-82
2023/01/22 02:39:00;;;;;;;9.18;4.95;;;-1.00;99.90;;;;;;5039498;28;20485;-82
2023/01/22 02:41:26;;;;;;;10.70;5.70;;;-1.00;99.90;;;;;;5028285;28;20098;-83
2023/01/22 02:43:52;;;;;;;10.27;5.40;;;-1.00;99.90;;;;;;5039972;28;20052;-83
2023/01/22 02:46:20;;;;;;;8.27;4.55;;;-1.00;99.90;;;;;;5044489;28;20037;-82
2023/01/22 02:48:46;;;;;;;11.57;5.47;;;-1.10;99.90;;;;;;5038458;28;20060;-83
2023/01/22 02:51:13;;;;;;;9.45;5.15;;;-1.00;99.90;;;;;;5038342;28;20470;-82
2023/01/22 02:53:40;;;;;;;11.98;6.43;;;-1.00;99.90;;;;;;5032156;28;20022;-83
2023/01/22 02:56:07;;;;;;;11.95;6.07;;;-0.90;99.90;;;;;;5040948;28;20123;-83
2023/01/22 02:58:34;;;;;;;14.75;7.68;;;-1.00;99.90;;;;;;5044552;28;20163;-82
2023/01/22 03:01:19;;;;;;;18.77;11.15;;;-1.00;99.90;;;;;;5036558;28;20469;-83
2023/01/22 03:04:21;;;;;;;19.73;10.32;;;-1.00;99.90;;;;;;5055630;28;20103;-82
2023/01/22 03:06:46;;;;;;;15.80;7.50;;;-1.10;99.90;;;;;;5040216;28;20504;-82
2023/01/22 03:09:14;;;;;;;15.07;7.88;;;-1.10;99.90;;;;;;5037872;28;20426;-83
2023/01/22 03:11:42;;;;;;;17.55;10.02;;;-1.10;99.90;;;;;;5040992;28;20033;-84
2023/01/22 03:22:35;;;;;;;15.00;7.45;;;-0.90;99.90;;;;;;5044256;28;20099;-83
2023/01/22 03:25:01;;;;;;;14.15;7.50;;;-0.90;99.90;;;;;;5041293;28;20025;-83
2023/01/22 03:27:29;;;;;;;17.50;8.18;;;-0.90;99.90;;;;;;5038084;28;20546;-82
2023/01/22 03:29:56;;;;;;;14.93;8.00;;;-0.80;99.90;;;;;;5044314;28;20025;-82
2023/01/22 03:32:22;;;;;;;15.00;7.68;;;-0.90;99.90;;;;;;5045083;28;20033;-83
2023/01/22 03:34:49;;;;;;;19.05;11.18;;;-0.80;99.90;;;;;;5041384;28;20034;-82
2023/01/22 03:37:15;;;;;;;17.00;9.65;;;-0.70;99.90;;;;;;5030259;28;20121;-82
2023/01/22 03:39:43;;;;;;;18.85;10.10;;;-0.80;99.90;;;;;;5048769;28;20026;-83
2023/01/22 03:42:14;;;;;;;16.52;9.40;;;-0.80;99.90;;;;;;5030007;28;20061;-83
2023/01/22 03:44:39;;;;;;;19.13;10.93;;;-0.80;99.90;;;;;;5053378;28;20507;-82
2023/01/22 03:47:05;;;;;;;16.65;9.48;;;-0.70;99.90;;;;;;5045192;28;20052;-82
2023/01/22 03:49:31;;;;;;;16.20;9.07;;;-0.70;99.90;;;;;;5043520;28;20041;-82
2023/01/22 03:51:57;;;;;;;15.93;8.20;;;-0.70;99.90;;;;;;5043782;28;20021;-82
2023/01/22 03:54:24;;;;;;;16.30;8.80;;;-0.70;99.90;;;;;;5044820;28;20029;-83
2023/01/22 03:56:53;;;;;;;20.33;10.63;;;-0.70;99.90;;;;;;5042820;28;20025;-82
2023/01/22 03:59:27;;;;;;;13.73;8.02;;;-0.60;99.90;;;;;;5045757;28;20040;-81
2023/01/22 04:01:53;;;;;;;18.55;9.88;;;-0.70;99.90;;;;;;5041073;28;20033;-81
2023/01/22 04:04:20;;;;;;;18.15;10.50;;;-0.70;99.90;;;;;;5025945;28;20021;-82
2023/01/22 04:06:45;;;;;;;17.17;9.45;;;-0.70;99.90;;;;;;5025910;28;20045;-82
2023/01/22 04:09:12;;;;;;;15.02;7.80;;;-0.60;99.90;;;;;;5046614;28;20072;-82
2023/01/22 04:11:45;;;;;;;15.55;8.65;;;-0.60;99.90;;;;;;5043197;28;20563;-82
2023/01/22 04:14:11;;;;;;;15.15;8.15;;;-0.60;99.90;;;;;;5024908;28;20036;-81
2023/01/22 04:16:41;;;;;;;18.85;9.43;;;-0.60;99.90;;;;;;5042610;28;20029;-81
2023/01/22 04:19:20;;;;;;;16.02;8.25;;;-0.60;99.90;;;;;;5039681;28;20036;-81
2023/01/22 04:22:01;;;;;;;11.32;6.32;;;-0.60;99.90;;;;;;5045996;28;20463;-82
2023/01/22 04:24:27;;;;;;;11.93;6.60;;;-0.60;99.90;;;;;;5044692;28;20120;-82
2023/01/22 04:26:52;;;;;;;12.68;6.97;;;-0.60;99.90;;;;;;5045610;28;20132;-81
2023/01/22 04:29:19;;;;;;;16.35;8.75;;;-0.60;99.90;;;;;;5021516;28;20394;-81
2023/01/22 04:31:45;;;;;;;15.65;8.85;;;-0.50;99.90;;;;;;5029430;28;20034;-81
2023/01/22 04:34:10;;;;;;;13.43;7.25;;;-0.50;99.90;;;;;;5038107;28;20112;-82
2023/01/22 04:36:44;;;;;;;19.73;9.90;;;-0.60;99.90;;;;;;5042772;28;20611;-82
2023/01/22 04:39:09;;;;;;;16.02;9.38;;;-0.50;99.90;;;;;;5040665;28;20049;-82
2023/01/22 04:41:35;;;;;;;15.77;9.60;;;-0.50;99.90;;;;;;5041314;28;20067;-82
2023/01/22 04:44:01;;;;;;;12.43;7.22;;;-0.60;99.90;;;;;;5045154;28;20025;-82
2023/01/22 04:46:28;;;;;;;12.40;5.78;;;-0.50;99.90;;;;;;5039962;28;20041;-82
2023/01/22 04:48:54;;;;;;;11.43;6.03;;;-0.50;99.90;;;;;;5045603;28;20132;-81
2023/01/22 04:51:19;;;;;;;16.58;9.65;;;-0.60;99.90;;;;;;5029467;28;20087;-81
2023/01/22 04:53:45;;;;;;;14.70;8.48;;;-0.50;99.90;;;;;;5042356;28;20538;-82
2023/01/22 04:56:11;;;;;;;13.60;7.70;;;-0.50;99.90;;;;;;5042001;28;20028;-82
2023/01/22 04:58:37;;;;;;;14.85;8.15;;;-0.50;99.90;;;;;;5044523;28;20393;-81
2023/01/22 05:01:03;;;;;;;11.27;7.00;;;-0.50;99.90;;;;;;5045071;28;20021;-82
2023/01/22 05:03:29;;;;;;;10.27;6.10;;;-0.60;99.90;;;;;;5034749;28;20028;-81
2023/01/22 05:05:56;;;;;;;9.02;5.32;;;-0.50;99.90;;;;;;5042993;28;20097;-82
2023/01/22 05:08:21;;;;;;;11.52;6.95;;;-0.50;99.90;;;;;;5036576;28;20025;-81
2023/01/22 05:10:47;;;;;;;11.25;5.55;;;-0.50;99.90;;;;;;5028239;28;20045;-83
2023/01/22 05:13:20;;;;;;;10.88;6.07;;;-0.50;99.90;;;;;;5041629;28;20362;-82
2023/01/22 05:15:45;;;;;;;8.73;5.25;;;-0.50;99.90;;;;;;5041346;28;20033;-81
2023/01/22 05:18:12;;;;;;;11.70;6.30;;;-0.60;99.90;;;;;;5030461;28;20027;-82
2023/01/22 05:20:45;;;;;;;10.85;7.03;;;-0.50;99.90;;;;;;5024357;28;20429;-82
2023/01/22 05:23:11;;;;;;;9.98;6.30;;;-0.50;99.90;;;;;;5045838;28;20035;-82
2023/01/22 05:25:37;;;;;;;9.40;5.85;;;-0.50;99.90;;;;;;5041666;28;20385;-82
2023/01/22 05:28:04;;;;;;;8.65;5.28;;;-0.50;99.90;;;;;;5040798;28;20097;-82
2023/01/22 05:30:41;;;;;;;17.77;9.95;;;-0.50;99.90;;;;;;5042906;28;20421;-82
2023/01/22 05:33:31;;;;;;;16.35;9.95;;;-0.50;99.90;;;;;;5041541;28;20112;-82
2023/01/22 05:35:58;;;;;;;17.50;10.55;;;-0.50;99.90;;;;;;5044874;28;20397;-80
2023/01/22 05:38:24;;;;;;;17.90;10.27;;;-0.50;99.90;;;;;;5037623;28;20065;-83
2023/01/22 05:40:51;;;;;;;20.73;11.90;;;-0.40;99.90;;;;;;5046923;28;20031;-81
2023/01/22 05:43:17;;;;;;;14.57;8.93;;;-0.50;99.90;;;;;;5037681;28;20087;-83
2023/01/22 05:45:48;;;;;;;17.23;10.88;;;-0.50;99.90;;;;;;5020421;28;20037;-82
2023/01/22 05:48:40;;;;;;;18.23;10.60;;;-0.40;99.90;;;;;;5038227;28;20045;-83
2023/01/22 05:51:15;;;;;;;22.40;12.35;;;-0.40;99.90;;;;;;5045342;28;20029;-82
2023/01/22 05:53:41;;;;;;;20.20;13.07;;;-0.40;99.90;;;;;;5045358;28;20029;-82
2023/01/22 05:56:08;;;;;;;22.45;12.65;;;-0.40;99.90;;;;;;5023754;28;20040;-82
2023/01/22 05:58:37;;;;;;;22.42;13.30;;;-0.40;99.90;;;;;;5023876;28;20036;-82
2023/01/22 06:01:03;;;;;;;24.83;14.35;;;-0.40;99.90;;;;;;5040727;28;20083;-82
2023/01/22 06:03:34;;;;;;;19.88;12.48;;;-0.40;99.90;;;;;;5038734;28;20072;-82
2023/01/22 06:06:09;;;;;;;17.27;10.65;;;-0.40;99.90;;;;;;5039451;28;20121;-81
2023/01/22 06:08:36;;;;;;;24.95;14.52;;;-0.40;99.90;;;;;;5042712;28;20485;-82
2023/01/22 06:11:03;;;;;;;21.65;12.82;;;-0.40;99.90;;;;;;5046198;28;20200;-82
2023/01/22 06:13:30;;;;;;;25.58;16.15;;;-0.40;99.90;;;;;;5054086;28;20128;-83
2023/01/22 06:16:01;;;;;;;22.85;13.23;;;-0.40;99.90;;;;;;5041629;28;20029;-82
2023/01/22 06:18:53;;;;;;;25.25;14.73;;;-0.40;99.90;;;;;;5036942;28;20057;-82
2023/01/22 06:21:19;;;;;;;19.33;12.15;;;-0.40;99.90;;;;;;5057392;28;20087;-81
2023/01/22 06:23:45;;;;;;;22.08;12.70;;;-0.40;99.90;;;;;;5039826;28;20030;-83
2023/01/22 06:26:12;;;;;;;19.55;12.18;;;-0.40;99.90;;;;;;5047337;28;20072;-82
2023/01/22 06:28:37;;;;;;;20.08;12.70;;;-0.40;99.90;;;;;;5046592;28;20056;-82
2023/01/22 06:31:06;;;;;;;20.23;12.05;;;-0.40;99.90;;;;;;5049453;28;20044;-82
2023/01/22 06:33:37;;;;;;;16.02;10.27;;;-0.40;99.90;;;;;;5049404;28;20028;-83
2023/01/22 06:36:04;;;;;;;16.40;10.98;;;-0.40;99.90;;;;;;5054113;28;20025;-82
2023/01/22 06:38:31;;;;;;;17.15;10.60;;;-0.40;99.90;;;;;;5043666;28;20455;-83
2023/01/22 06:41:00;;;;;;;16.55;12.13;;;-0.40;99.90;;;;;;5033777;28;20034;-83
2023/01/22 06:43:27;;;;;;;16.42;9.68;;;-0.40;99.90;;;;;;5032569;28;20074;-82
2023/01/22 06:45:54;;;;;;;14.25;8.88;;;-0.40;99.90;;;;;;5045060;28;20041;-82
2023/01/22 06:48:31;;;;;;;19.67;10.80;;;-0.40;99.90;;;;;;5042766;28;20040;-82
2023/01/22 06:51:00;;;;;;;15.13;9.85;;;-0.40;99.90;;;;;;5043165;28;20033;-82
2023/01/22 06:53:26;;;;;;;15.18;9.98;;;-0.40;99.90;;;;;;5029703;28;20463;-82
2023/01/22 06:55:51;;;;;;;14.23;9.93;;;-0.40;99.90;;;;;;5039198;28;20029;-83
2023/01/22 06:58:17;;;;;;;14.55;9.57;;;-0.40;99.90;;;;;;5049685;28;20032;-82
2023/01/22 07:00:43;;;;;;;15.98;11.07;;;-0.30;99.90;;;;;;5027394;28;20029;-82
2023/01/22 07:03:10;;;;;;;13.75;8.73;;;-0.30;99.90;;;;;;5045572;28;20037;-83
2023/01/22 07:05:35;;;;;;;14.90;9.95;;;-0.30;99.90;;;;;;5041410;28;20129;-82
2023/01/22 07:08:02;;;;;;;13.65;9.15;;;-0.30;99.90;;;;;;5039704;28;20551;-83
2023/01/22 07:10:27;;;;;;;18.42;11.15;;;-0.30;99.90;;;;;;5049700;28;20025;-82
2023/01/22 07:12:54;;;;;;;18.30;11.30;;;-0.30;99.90;;;;;;5040150;28;20036;-82
2023/01/22 07:15:20;;;;;;;15.75;10.15;;;-0.30;99.90;;;;;;5040895;28;20079;-82
2023/01/22 07:17:53;;;;;;;10.73;7.63;;;-0.30;99.90;;;;;;5041439;28;20025;-81
2023/01/22 07:20:20;;;;;;;18.75;11.90;;;-0.30;99.90;;;;;;5038698;28;20454;-81
2023/01/22 07:22:46;;;;;;;16.95;10.45;;;-0.30;99.90;;;;;;5022136;28;20425;-82
2023/01/22 07:25:12;;;;;;;14.93;9.55;;;-0.30;99.90;;;;;;5047933;28;20033;-81
2023/01/22 07:27:40;;;;;;;13.52;8.93;;;-0.30;99.90;;;;;;5044004;28;20037;-81
2023/01/22 07:30:08;;;;;;;;;;;-0.20;99.90;;;;;;5043269;28;20037;-81
2023/01/22 07:32:34;;;;;;;13.70;8.25;;;-0.20;99.90;;;;;;5045125;28;19916;-81
2023/01/22 07:35:00;;;;;;;13.52;8.65;;;-0.30;99.90;;;;;;5026196;28;20036;-82
2023/01/22 07:37:26;;;;;;;11.88;7.22;;;-0.20;99.90;;;;;;5041213;28;20461;-83
2023/01/22 07:39:52;;;;;;;12.60;9.07;;;-0.20;99.90;;;;;;5046385;28;20443;-82
2023/01/22 07:42:18;;;;;;;12.40;9.07;;;-0.20;99.90;;;;;;5037176;28;20053;-81
2023/01/22 07:44:44;;;;;;;12.73;6.97;;;-0.20;99.90;;;;;;5047674;28;20025;-82
2023/01/22 07:47:10;;;;;;;12.23;8.20;;;-0.20;99.90;;;;;;5045834;28;20091;-81
2023/01/22 07:49:36;;;;;;;9.77;6.45;;;-0.20;99.90;;;;;;5037697;28;20091;-82
2023/01/22 07:52:01;;;;;;;7.70;4.88;;;-0.20;99.90;;;;;;5039822;28;20021;-82
2023/01/22 07:54:27;;;;;;;15.55;9.25;;;-0.20;99.90;;;;;;5042455;28;20030;-82
2023/01/22 07:56:52;;;;;;;11.20;6.85;;;-0.20;99.90;;;;;;5038330;28;20055;-82
2023/01/22 07:59:18;;;;;;;13.48;8.75;;;-0.20;99.90;;;;;;5042126;28;20025;-80
2023/01/22 08:01:44;;;;;;;12.68;8.95;;;-0.20;99.90;;;;;;5040565;28;20037;-82
2023/01/22 08:04:09;;;;;;;10.00;7.00;;;-0.20;99.90;;;;;;5040883;28;20160;-82
2023/01/22 08:06:35;;;;;;;13.25;7.65;;;-0.10;99.90;;;;;;5043494;28;20053;-81
2023/01/22 08:09:01;;;;;;;13.45;7.10;;;-0.10;99.90;;;;;;5044674;28;20419;-81
2023/01/22 08:11:27;;;;;;;11.95;8.05;;;-0.10;99.90;;;;;;5040201;28;20055;-82
2023/01/22 08:13:53;;;;;;;11.60;7.95;;;-0.10;99.90;;;;;;5040793;28;20029;-82
2023/01/22 08:16:20;;;;;;;14.00;10.10;;;-0.10;99.90;;;;;;5043664;28;20037;-82
2023/01/22 08:18:45;;;;;;;14.57;8.77;;;0.00;99.90;;;;;;5046795;28;20029;-82
2023/01/22 08:21:11;;;;;;;13.35;9.80;;;-0.10;99.90;;;;;;5040292;28;20032;-81
2023/01/22 08:23:37;;;;;;;13.20;9.63;;;0.00;99.90;;;;;;5030530;28;20397;-81
2023/01/22 08:26:03;;;;;;;12.55;9.70;;;0.00;99.90;;;;;;5036500;28;20048;-81
2023/01/22 08:28:30;;;;;;;11.95;8.45;;;0.00;99.90;;;;;;5020837;28;20033;-81
2023/01/22 08:30:58;;;;;;;14.45;9.18;;;0.00;99.90;;;;;;5044803;28;20030;-81
2023/01/22 08:33:24;;;;;;;12.93;9.73;;;0.00;99.90;;;;;;5043658;28;20151;-81
2023/01/22 08:35:50;;;;;;;9.50;7.55;;;0.00;99.90;;;;;;5037648;28;20123;-81
2023/01/22 08:38:16;;;;;;;11.90;8.80;;;0.00;99.90;;;;;;5042756;28;20043;-81
2023/01/22 08:40:41;;;;;;;11.60;7.55;;;0.00;99.90;;;;;;5041713;28;20112;-81
2023/01/22 08:43:07;;;;;;;17.02;11.13;;;0.00;99.90;;;;;;5034325;28;20039;-82
2023/01/22 08:45:33;;;;;;;12.50;10.38;;;0.00;99.90;;;;;;5039632;28;20056;-81
2023/01/22 08:47:59;;;;;;;9.77;7.95;;;0.00;99.90;;;;;;5024367;28;20060;-81
2023/01/22 08:50:27;;;;;;;10.02;7.15;;;0.00;99.90;;;;;;5043790;28;20525;-83
2023/01/22 08:52:55;;;;;;;10.93;8.15;;;0.00;99.90;;;;;;5041353;28;20124;-81
2023/01/22 08:55:21;;;;;;;8.88;6.90;;;0.00;99.90;;;;;;5041903;28;20039;-82
2023/01/22 08:57:55;;;;;;;8.10;6.63;;;0.00;99.90;;;;;;5044577;28;20033;-82
2023/01/22 09:00:21;;;;;;;6.55;5.40;;;0.00;99.90;;;;;;5025064;28;20064;-81
2023/01/22 09:02:47;;;;;;;7.32;6.25;;;0.10;99.90;;;;;;5039255;28;20383;-81
2023/01/22 09:05:13;;;;;;;7.75;5.85;;;0.10;99.90;;;;;;5035661;28;20112;-82
2023/01/22 09:07:38;;;;;;;10.20;8.25;;;0.10;99.90;;;;;;5043440;28;20037;-81
2023/01/22 09:10:07;;;;;;;11.77;8.15;;;0.10;99.90;;;;;;5033881;28;20478;-81
2023/01/22 09:12:35;;;;;;;14.40;10.63;;;0.10;99.90;;;;;;5041257;28;20061;-83
2023/01/22 09:15:02;;;;;;;13.52;10.23;;;0.10;99.90;;;;;;5035806;28;20043;-81
2023/01/22 09:17:28;;;;;;;9.60;8.48;;;0.10;99.90;;;;;;5036233;28;20056;-81
2023/01/22 09:19:53;;;;;;;9.27;7.15;;;0.10;99.90;;;;;;5045546;28;20063;-82
2023/01/22 09:22:19;;;;;;;10.45;8.25;;;0.10;99.90;;;;;;5044456;28;20077;-82
2023/01/22 09:24:45;;;;;;;10.98;8.75;;;0.10;99.90;;;;;;5036143;28;20029;-80
2023/01/22 09:27:12;;;;;;;8.25;7.07;;;0.10;99.90;;;;;;5043347;28;20037;-81
2023/01/22 09:29:38;;;;;;;9.63;7.70;;;0.20;99.90;;;;;;5037137;28;20134;-80
2023/01/22 09:32:04;;;;;;;8.55;6.00;;;0.20;99.90;;;;;;5054746;28;20449;-81
2023/01/22 09:34:30;;;;;;;8.20;6.03;;;0.20;99.90;;;;;;5037233;28;20112;-81
2023/01/22 09:36:56;;;;;;;9.02;7.07;;;0.20;99.90;;;;;;5042041;28;20092;-82
2023/01/22 09:39:21;;;;;;;9.70;7.35;;;0.20;99.90;;;;;;5043984;28;20033;-81
2023/01/22 09:41:53;;;;;;;7.20;5.80;;;0.20;99.90;;;;;;5039682;28;20060;-81
2023/01/22 09:44:36;;;;;;;6.97;4.75;;;0.20;99.90;;;;;;5020587;28;20609;-82
2023/01/22 09:47:06;;;;;;;7.90;5.80;;;0.20;99.90;;;;;;5038429;28;20044;-81
2023/01/22 09:49:41;;;;;;;10.55;7.43;;;0.20;99.90;;;;;;5043078;28;20052;-81
2023/01/22 09:52:09;;;;;;;8.10;6.63;;;0.20;99.90;;;;;;5048683;28;20037;-81
2023/01/22 09:54:35;;;;;;;6.63;5.65;;;0.30;99.90;;;;;;5049138;28;20554;-80
2023/01/22 09:57:05;;;;;;;7.50;6.22;;;0.30;99.90;;;;;;5029686;28;20116;-81
2023/01/22 09:59:45;;;;;;;10.55;7.47;;;0.30;99.90;;;;;;5046288;28;20029;-80
2023/01/22 10:02:29;;;;;;;8.20;6.05;;;0.30;99.90;;;;;;5041297;28;20040;-80
2023/01/22 10:05:04;;;;;;;7.47;6.25;;;0.30;99.90;;;;;;5043110;28;20082;-81
2023/01/22 10:07:42;;;;;;;8.55;7.35;;;0.30;99.90;;;;;;5040908;28;20045;-80
2023/01/22 10:10:26;;;;;;;6.40;5.47;;;0.40;99.90;;;;;;5036238;28;20036;-81
2023/01/22 10:13:00;;;;;;;8.25;6.32;;;0.40;99.90;;;;;;5036255;28;20034;-82
2023/01/22 10:15:26;;;;;;;9.27;6.35;;;0.40;99.90;;;;;;5035120;28;20036;-82
2023/01/22 10:17:55;;;;;;;8.77;6.30;;;0.40;99.90;;;;;;5036266;28;20029;-81
2023/01/22 10:20:23;;;;;;;8.10;5.25;;;0.40;99.90;;;;;;5040826;28;20017;-81
2023/01/22 10:22:53;;;;;;;8.90;5.13;;;0.40;99.90;;;;;;5039866;28;20028;-82
2023/01/22 10:25:18;;;;;;;8.00;5.82;;;0.50;99.90;;;;;;5023904;28;20449;-81
2023/01/22 10:27:46;;;;;;;8.77;6.40;;;0.50;99.90;;;;;;5043190;28;20052;-81
2023/01/22 10:30:18;;;;;;;11.68;7.28;;;0.50;99.90;;;;;;5036884;28;20029;-82
2023/01/22 10:32:44;;;;;;;9.68;7.03;;;0.40;99.90;;;;;;5037450;28;20041;-81
2023/01/22 10:35:10;;;;;;;8.25;5.28;;;0.50;99.90;;;;;;5034782;28;20033;-80
2023/01/22 10:37:51;;;;;;;7.20;5.05;;;0.50;99.90;;;;;;5019496;28;20068;-81
2023/01/22 10:40:32;;;;;;;7.05;5.68;;;0.50;99.90;;;;;;5038852;28;20037;-81
2023/01/22 10:43:13;;;;;;;9.52;6.10;;;0.60;99.90;;;;;;5038311;28;20515;-81
2023/01/22 10:45:58;;;;;;;9.75;6.07;;;0.60;99.90;;;;;;5047909;28;20368;-80
2023/01/22 10:48:24;;;;;;;7.40;4.88;;;0.60;99.90;;;;;;5051224;28;20045;-81
2023/01/22 10:51:16;;;;;;;5.03;4.10;;;0.60;99.90;;;;;;5037847;28;20064;-81
2023/01/22 10:53:53;;;;;;;10.23;7.03;;;0.60;99.90;;;;;;5041322;28;20033;-81
2023/01/22 10:56:31;;;;;;;9.25;7.25;;;0.60;99.90;;;;;;5043623;28;20021;-80
2023/01/22 10:58:58;;;;;;;9.15;5.85;;;0.60;99.90;;;;;;5042758;28;20025;-80
2023/01/22 11:01:31;;;;;;;10.73;6.90;;;0.60;99.90;;;;;;5027165;28;20074;-81
2023/01/22 11:03:57;;;;;;;7.97;5.68;;;0.70;99.90;;;;;;5035206;28;20029;-81
2023/01/22 11:06:45;;;;;;;10.73;8.23;;;0.60;99.90;;;;;;5036148;28;20041;-80
2023/01/22 11:09:29;;;;;;;14.43;9.18;;;0.60;99.90;;;;;;5054712;28;20193;-82
2023/01/22 11:12:24;;;;;;;10.10;7.25;;;0.60;99.90;;;;;;5040832;28;20029;-82
2023/01/22 11:15:18;;;;;;;9.18;7.07;;;0.70;99.90;;;;;;5029470;28;20375;-81
2023/01/22 11:17:50;;;;;;;10.52;6.65;;;0.70;99.90;;;;;;5024030;28;20234;-81
2023/01/22 11:20:29;;;;;;;8.32;5.72;;;0.70;99.90;;;;;;5052956;28;20045;-80
2023/01/22 11:23:40;;;;;;;12.30;8.90;;;0.70;99.90;;;;;;5040107;28;20030;-80
2023/01/22 11:26:21;;;;;;;12.68;9.35;;;0.70;99.90;;;;;;5048655;28;20041;-80
2023/01/22 11:29:07;;;;;;;12.85;7.40;;;0.70;99.90;;;;;;5036481;28;20022;-79
2023/01/22 11:31:59;;;;;;;9.90;8.30;;;0.70;99.90;;;;;;5021169;28;20387;-79
2023/01/22 11:34:53;;;;;;;11.10;8.07;;;0.70;99.90;;;;;;5050942;28;20110;-80
2023/01/22 11:37:35;;;;;;;15.77;8.35;;;0.70;99.90;;;;;;5050903;28;20053;-82
2023/01/22 11:40:25;;;;;;;12.50;8.02;;;0.70;99.90;;;;;;5039927;28;20508;-79
2023/01/22 11:43:03;;;;;;;;;;;0.70;99.90;;;;;;5050571;28;20451;-80
2023/01/22 11:45:56;;;;;;;12.40;8.68;;;0.70;99.90;;;;;;5025819;28;19916;-80
2023/01/22 11:49:00;;;;;;;13.50;8.82;;;0.70;99.90;;;;;;5038225;28;20136;-80
2023/01/22 11:51:33;;;;;;;10.18;8.30;;;0.70;99.90;;;;;;5033504;28;20489;-80
2023/01/22 11:54:30;;;;;;;11.90;6.35;;;0.70;99.90;;;;;;5045785;28;20033;-79
2023/01/22 11:57:23;;;;;;;11.07;6.75;;;0.80;99.90;;;;;;5051879;28;20032;-81
2023/01/22 12:00:40;;;;;;;9.25;6.75;;;0.80;99.90;;;;;;5041225;28;20389;-79
2023/01/22 12:03:44;;;;;;;9.38;5.43;;;0.80;99.90;;;;;;4982145;28;20438;-79
2023/01/22 12:06:23;;;;;;;11.15;7.35;;;0.90;99.90;;;;;;4933073;29;20505;-79
2023/01/22 12:09:09;;;;;;;9.10;5.95;;;0.90;99.90;;;;;;4921158;29;20032;-80
2023/01/22 12:11:53;;;;;;;9.02;6.60;;;1.00;99.90;;;;;;4906096;29;20389;-79
2023/01/22 12:14:19;;;;;;;9.13;6.38;;;0.90;99.90;;;;;;4920695;29;20396;-79
2023/01/22 12:16:59;;;;;;;10.35;6.20;;;1.00;99.90;;;;;;4923183;29;20044;-80
2023/01/22 12:19:36;;;;;;;8.23;4.43;;;1.00;99.90;;;;;;4939486;29;20122;-80
2023/01/22 12:22:43;;;;;;;6.63;4.60;;;1.00;99.90;;;;;;4921030;29;20070;-80
2023/01/22 12:25:26;;;;;;;7.38;4.78;;;1.00;99.90;;;;;;4917640;29;20031;-79
2023/01/22 12:28:02;;;;;;;11.60;6.80;;;1.00;99.90;;;;;;4919298;29;20080;-79
2023/01/22 12:30:52;;;;;;;14.35;8.75;;;1.00;99.90;;;;;;4934431;29;20401;-79
2023/01/22 12:33:23;;;;;;;11.07;7.72;;;1.10;99.90;;;;;;4909122;28;20050;-80
2023/01/22 12:35:51;;;;;;;10.90;7.57;;;1.10;99.90;;;;;;4962238;28;20028;-79
2023/01/22 12:38:38;;;;;;;12.02;7.57;;;1.10;99.90;;;;;;4938237;28;20027;-78
2023/01/22 12:41:16;;;;;;;11.23;7.47;;;1.10;99.90;;;;;;4949904;28;20122;-80
2023/01/22 12:43:55;;;;;;;10.20;7.43;;;1.20;99.90;;;;;;5008487;28;20033;-81
2023/01/22 12:46:30;;;;;;;8.15;5.28;;;1.20;99.90;;;;;;5030400;28;20422;-81
2023/01/22 12:49:06;;;;;;;7.78;5.05;;;1.20;99.90;;;;;;5055633;28;20078;-81
2023/01/22 12:51:39;;;;;;;8.82;6.47;;;1.20;99.90;;;;;;5053342;28;20029;-81
2023/01/22 12:54:19;;;;;;;10.60;6.32;;;1.20;99.90;;;;;;5044367;28;20045;-79
2023/01/22 12:56:46;;;;;;;8.47;5.53;;;1.30;99.90;;;;;;5054030;28;20017;-81
2023/01/22 12:59:35;;;;;;;7.50;5.35;;;1.20;99.90;;;;;;5048443;28;20062;-80
2023/01/22 13:02:24;;;;;;;13.60;8.40;;;1.30;99.90;;;;;;5039148;28;20025;-79
2023/01/22 13:04:50;;;;;;;13.05;8.35;;;1.20;99.90;;;;;;5054601;28;20474;-80
2023/01/22 13:07:22;;;;;;;12.02;7.78;;;1.20;99.90;;;;;;5044885;28;20043;-79